createdAt,value
2018-08-09T00:01:03.904Z,23.82
2018-08-09T00:03:32.753Z,23.72
2018-08-09T00:06:01.742Z,23.67
2018-08-09T00:08:31.038Z,23.69
2018-08-09T00:11:00.154Z,23.79
2018-08-09T00:13:29.448Z,23.65
2018-08-09T00:15:58.738Z,23.66
2018-08-09T00:18:27.874Z,23.68
2018-08-09T00:20:57.212Z,23.67
2018-08-09T00:23:26.314Z,23.54
2018-08-09T00:25:55.133Z,23.50
2018-08-09T00:28:24.113Z,23.46
2018-08-09T00:30:53.194Z,23.47
2018-08-09T00:33:22.340Z,23.48
2018-08-09T00:35:51.478Z,23.34
2018-08-09T00:38:20.814Z,23.28
2018-08-09T00:40:49.715Z,23.37
2018-08-09T00:43:18.387Z,23.41
2018-08-09T00:45:47.698Z,23.38
2018-08-09T00:48:16.745Z,23.38
2018-08-09T00:50:46.102Z,23.42
2018-08-09T00:53:15.291Z,23.39
2018-08-09T00:55:44.522Z,23.38
2018-08-09T00:58:13.589Z,23.36
2018-08-09T01:00:42.694Z,23.38
2018-08-09T01:03:11.723Z,23.34
2018-08-09T01:05:40.766Z,23.29
2018-08-09T01:08:10.036Z,23.26
2018-08-09T01:10:39.344Z,23.29
2018-08-09T01:13:08.458Z,23.25
2018-08-09T01:15:37.652Z,23.04
2018-08-09T01:18:08.470Z,23.11
2018-08-09T01:20:37.455Z,23.24
2018-08-09T01:23:06.506Z,23.27
2018-08-09T01:25:35.746Z,23.29
2018-08-09T01:28:04.969Z,23.39
2018-08-09T01:30:34.061Z,23.46
2018-08-09T01:33:03.163Z,23.22
2018-08-09T01:35:32.341Z,22.95
2018-08-09T01:38:01.474Z,22.94
2018-08-09T01:40:30.580Z,23.08
2018-08-09T01:43:10.647Z,23.08
2018-08-09T01:45:39.993Z,23.07
2018-08-09T01:48:09.244Z,23.17
2018-08-09T01:50:38.486Z,23.27
2018-08-09T01:53:07.527Z,23.25
2018-08-09T01:55:36.658Z,23.08
2018-08-09T01:58:05.766Z,23.11
2018-08-09T02:00:34.866Z,23.12
2018-08-09T02:03:03.902Z,23.08
2018-08-09T02:05:33.030Z,22.99
2018-08-09T02:08:02.163Z,23.01
2018-08-09T02:10:31.005Z,22.93
2018-08-09T02:13:00.102Z,22.73
2018-08-09T02:15:29.199Z,22.60
2018-08-09T02:17:58.466Z,22.76
2018-08-09T02:20:27.470Z,22.89
2018-08-09T02:22:56.541Z,22.91
2018-08-09T02:25:25.790Z,22.94
2018-08-09T02:27:54.745Z,22.96
2018-08-09T02:30:23.796Z,22.90
2018-08-09T02:32:52.982Z,22.91
2018-08-09T02:35:22.218Z,22.90
2018-08-09T02:37:51.536Z,22.94
2018-08-09T02:40:20.614Z,22.89
2018-08-09T02:42:49.808Z,22.83
2018-08-09T02:45:18.710Z,22.90
2018-08-09T02:47:47.996Z,22.84
2018-08-09T02:50:17.213Z,22.81
2018-08-09T02:52:46.090Z,22.81
2018-08-09T02:55:15.150Z,22.81
2018-08-09T02:57:44.126Z,22.86
2018-08-09T03:00:13.242Z,22.83
2018-08-09T03:02:42.104Z,22.84
2018-08-09T03:05:11.348Z,22.78
2018-08-09T03:07:40.598Z,22.87
2018-08-09T03:10:09.697Z,22.88
2018-08-09T03:12:38.870Z,22.86
2018-08-09T03:15:08.153Z,22.83
2018-08-09T03:17:37.150Z,22.78
2018-08-09T03:20:06.161Z,22.69
2018-08-09T03:22:35.063Z,22.70
2018-08-09T03:25:04.312Z,22.71
2018-08-09T03:27:33.407Z,22.71
2018-08-09T03:30:02.654Z,22.70
2018-08-09T03:32:31.750Z,22.61
2018-08-09T03:35:00.845Z,22.60
2018-08-09T03:37:30.132Z,22.56
2018-08-09T03:39:59.260Z,22.51
2018-08-09T03:42:28.376Z,22.51
2018-08-09T03:44:57.450Z,22.57
2018-08-09T03:47:26.184Z,22.57
2018-08-09T03:49:55.027Z,22.57
2018-08-09T03:52:24.261Z,22.58
2018-08-09T03:54:53.133Z,22.60
2018-08-09T03:57:22.179Z,22.69
2018-08-09T03:59:51.426Z,22.70
2018-08-09T04:02:20.509Z,22.80
2018-08-09T04:04:49.250Z,22.82
2018-08-09T04:07:18.222Z,22.98
2018-08-09T04:09:47.545Z,23.10
2018-08-09T04:12:16.646Z,23.24
2018-08-09T04:14:45.785Z,23.16
2018-08-09T04:17:19.886Z,23.13
2018-08-09T04:19:50.022Z,23.21
2018-08-09T04:22:19.614Z,23.20
2018-08-09T04:24:48.974Z,23.26
2018-08-09T04:27:18.063Z,23.31
2018-08-09T04:29:47.261Z,23.35
2018-08-09T04:32:16.362Z,23.48
2018-08-09T04:34:45.503Z,23.59
2018-08-09T04:37:14.459Z,23.67
2018-08-09T04:39:43.586Z,23.74
2018-08-09T04:42:12.718Z,23.84
2018-08-09T04:44:41.974Z,23.94
2018-08-09T04:47:11.208Z,24.00
2018-08-09T04:49:40.136Z,24.00
2018-08-09T04:52:09.211Z,23.99
2018-08-09T04:54:38.081Z,23.98
2018-08-09T04:57:07.098Z,24.04
2018-08-09T04:59:36.123Z,24.13
2018-08-09T05:02:05.423Z,24.10
2018-08-09T05:04:34.623Z,24.17
2018-08-09T05:07:03.509Z,24.23
2018-08-09T05:09:32.714Z,24.20
2018-08-09T05:12:01.837Z,24.13
2018-08-09T05:14:30.848Z,24.11
2018-08-09T05:16:59.934Z,24.15
2018-08-09T05:19:29.163Z,24.17
2018-08-09T05:21:58.026Z,24.28
2018-08-09T05:24:26.843Z,24.41
2018-08-09T05:26:55.702Z,24.41
2018-08-09T05:29:24.955Z,24.39
2018-08-09T05:31:54.235Z,24.53
2018-08-09T05:34:23.070Z,24.51
2018-08-09T05:36:52.231Z,24.56
2018-08-09T05:39:20.934Z,24.67
2018-08-09T05:41:49.942Z,24.77
2018-08-09T05:44:18.966Z,24.93
2018-08-09T05:46:48.058Z,24.94
2018-08-09T05:49:17.199Z,25.00
2018-08-09T05:51:46.041Z,25.08
2018-08-09T05:54:15.233Z,25.00
2018-08-09T05:56:44.294Z,24.86
2018-08-09T05:59:13.382Z,24.78
2018-08-09T06:01:42.555Z,24.85
2018-08-09T06:04:11.606Z,24.97
2018-08-09T06:06:40.810Z,25.10
2018-08-09T06:09:11.162Z,25.22
2018-08-09T06:11:39.954Z,25.40
2018-08-09T06:14:09.870Z,25.38
2018-08-09T06:16:39.175Z,25.43
2018-08-09T06:19:08.530Z,25.46
2018-08-09T06:21:37.678Z,25.50
2018-08-09T06:24:06.908Z,25.62
2018-08-09T06:26:36.047Z,25.80
2018-08-09T06:29:05.151Z,26.00
2018-08-09T06:31:34.159Z,26.12
2018-08-09T06:34:03.393Z,26.26
2018-08-09T06:36:32.458Z,26.43
2018-08-09T06:39:01.787Z,26.66
2018-08-09T06:41:30.826Z,26.66
2018-08-09T06:43:59.670Z,26.56
2018-08-09T06:46:28.495Z,26.62
2018-08-09T06:48:57.756Z,26.67
2018-08-09T06:51:26.794Z,26.83
2018-08-09T06:53:55.845Z,26.91
2018-08-09T06:56:24.935Z,27.02
2018-08-09T06:58:54.096Z,27.12
2018-08-09T07:01:23.309Z,26.99
2018-08-09T07:03:52.514Z,26.83
2018-08-09T07:06:21.459Z,26.88
2018-08-09T07:08:50.442Z,26.93
2018-08-09T07:11:19.645Z,26.86
2018-08-09T07:13:48.838Z,26.93
2018-08-09T07:16:17.530Z,26.84
2018-08-09T07:18:46.511Z,26.94
2018-08-09T07:21:15.394Z,27.09
2018-08-09T07:23:44.457Z,27.26
2018-08-09T07:26:13.459Z,27.48
2018-08-09T07:28:42.683Z,27.66
2018-08-09T07:31:11.551Z,27.65
2018-08-09T07:33:40.413Z,27.78
2018-08-09T07:36:09.732Z,27.91
2018-08-09T07:38:38.910Z,28.10
2018-08-09T07:41:08.014Z,28.19
2018-08-09T07:43:36.939Z,28.32
2018-08-09T07:46:06.240Z,28.43
2018-08-09T07:48:35.155Z,28.56
2018-08-09T07:51:04.159Z,28.68
2018-08-09T07:53:33.470Z,28.80
2018-08-09T07:56:02.610Z,28.85
2018-08-09T07:58:31.780Z,28.89
2018-08-09T08:01:00.868Z,28.92
2018-08-09T08:03:29.986Z,29.01
2018-08-09T08:05:58.921Z,29.02
2018-08-09T08:08:28.158Z,29.10
2018-08-09T08:10:57.239Z,29.07
2018-08-09T08:13:26.288Z,28.98
2018-08-09T08:15:55.448Z,29.08
2018-08-09T08:18:24.718Z,29.23
2018-08-09T08:20:53.835Z,29.38
2018-08-09T08:23:22.898Z,29.44
2018-08-09T08:25:51.889Z,29.50
2018-08-09T08:28:20.982Z,29.59
2018-08-09T08:30:49.814Z,29.63
2018-08-09T08:33:18.754Z,29.62
2018-08-09T08:35:47.926Z,29.55
2018-08-09T08:38:17.775Z,29.54
2018-08-09T08:40:46.873Z,29.56
2018-08-09T08:43:16.138Z,29.52
2018-08-09T08:45:45.493Z,29.51
2018-08-09T08:48:14.665Z,29.57
2018-08-09T08:50:43.839Z,29.70
2018-08-09T08:53:13.121Z,29.84
2018-08-09T08:55:42.366Z,30.03
2018-08-09T08:58:11.303Z,30.50
2018-08-09T09:00:40.534Z,31.20
2018-08-09T09:03:09.706Z,31.65
2018-08-09T09:05:38.670Z,32.28
2018-08-09T09:08:07.698Z,33.01
2018-08-09T09:10:36.922Z,33.74
2018-08-09T09:13:05.843Z,34.81
2018-08-09T09:15:34.911Z,35.66
2018-08-09T09:18:04.079Z,36.77
2018-08-09T09:20:33.179Z,38.23
2018-08-09T09:23:02.195Z,39.34
2018-08-09T09:25:31.359Z,39.31
2018-08-09T09:28:00.590Z,39.86
2018-08-09T09:30:29.520Z,40.70
2018-08-09T09:32:58.683Z,42.40
2018-08-09T09:35:27.481Z,43.90
2018-08-09T09:37:56.783Z,45.35
2018-08-09T09:40:25.818Z,46.42
2018-08-09T09:42:54.990Z,46.55
2018-08-09T09:45:23.830Z,46.69
2018-08-09T09:47:52.981Z,46.38
2018-08-09T09:50:22.252Z,46.27
2018-08-09T09:52:51.343Z,46.52
2018-08-09T09:55:20.367Z,46.41
2018-08-09T09:57:49.619Z,46.62
2018-08-09T10:00:23.762Z,45.73
2018-08-09T10:02:52.840Z,46.41
2018-08-09T10:05:21.914Z,46.10
2018-08-09T10:07:51.175Z,45.93
2018-08-09T10:10:20.062Z,45.38
2018-08-09T10:12:49.090Z,45.91
2018-08-09T10:15:18.040Z,46.38
2018-08-09T10:17:47.240Z,47.26
2018-08-09T10:20:16.322Z,48.43
2018-08-09T10:22:45.518Z,48.73
2018-08-09T10:25:14.399Z,49.12
2018-08-09T10:27:43.406Z,49.59
2018-08-09T10:30:12.243Z,49.90
2018-08-09T10:32:41.382Z,48.94
2018-08-09T10:35:10.582Z,49.56
2018-08-09T10:37:39.859Z,48.96
2018-08-09T10:40:09.251Z,47.49
2018-08-09T10:42:38.553Z,47.12
2018-08-09T10:45:07.956Z,46.46
2018-08-09T10:47:36.965Z,46.27
2018-08-09T10:50:06.352Z,46.38
2018-08-09T10:52:35.523Z,46.90
2018-08-09T10:55:05.014Z,48.09
2018-08-09T10:57:34.251Z,49.45
2018-08-09T11:00:04.189Z,49.04
2018-08-09T11:02:33.036Z,49.59
2018-08-09T11:05:02.010Z,50.23
2018-08-09T11:07:30.845Z,50.72
2018-08-09T11:10:00.065Z,50.43
2018-08-09T11:12:29.151Z,49.40
2018-08-09T11:14:58.313Z,47.73
2018-08-09T11:17:27.227Z,46.82
2018-08-09T11:19:56.597Z,48.13
2018-08-09T11:22:25.630Z,48.40
2018-08-09T11:24:54.822Z,47.88
2018-08-09T11:27:24.026Z,47.80
2018-08-09T11:29:53.240Z,48.03
2018-08-09T11:32:22.393Z,49.23
2018-08-09T11:34:51.498Z,49.45
2018-08-09T11:37:20.689Z,50.02
2018-08-09T11:39:49.803Z,50.15
2018-08-09T11:42:18.619Z,50.08
2018-08-09T11:44:47.971Z,50.64
2018-08-09T11:47:16.939Z,49.33
2018-08-09T11:49:46.287Z,50.45
2018-08-09T11:52:15.467Z,50.69
2018-08-09T11:54:44.812Z,51.22
2018-08-09T11:57:13.829Z,50.50
2018-08-09T11:59:43.005Z,49.32
2018-08-09T12:02:12.223Z,49.23
2018-08-09T12:04:41.056Z,49.32
2018-08-09T12:07:10.593Z,49.63
2018-08-09T12:09:39.855Z,49.75
2018-08-09T12:12:09.159Z,48.88
2018-08-09T12:14:38.478Z,48.15
2018-08-09T12:17:07.595Z,49.06
2018-08-09T12:19:36.690Z,49.87
2018-08-09T12:22:05.965Z,50.17
2018-08-09T12:24:35.289Z,50.11
2018-08-09T12:27:04.262Z,50.42
2018-08-09T12:29:33.370Z,50.17
2018-08-09T12:32:02.657Z,49.48
2018-08-09T12:34:31.678Z,48.34
2018-08-09T12:37:00.926Z,47.89
2018-08-09T12:39:30.034Z,48.14
2018-08-09T12:41:59.223Z,47.29
2018-08-09T12:44:28.495Z,47.26
2018-08-09T12:46:57.808Z,46.68
2018-08-09T12:49:27.019Z,47.09
2018-08-09T12:51:56.275Z,47.08
2018-08-09T12:54:25.502Z,46.68
2018-08-09T12:56:54.767Z,46.58
2018-08-09T12:59:24.035Z,48.01
2018-08-09T13:01:53.219Z,48.00
2018-08-09T13:04:22.274Z,47.45
2018-08-09T13:06:51.618Z,46.49
2018-08-09T13:09:20.933Z,45.40
2018-08-09T13:11:49.906Z,46.21
2018-08-09T13:14:19.162Z,46.55
2018-08-09T13:16:48.428Z,46.43
2018-08-09T13:19:17.514Z,45.38
2018-08-09T13:21:46.795Z,44.61
2018-08-09T13:24:16.034Z,45.00
2018-08-09T13:26:44.874Z,45.11
2018-08-09T13:29:13.985Z,44.49
2018-08-09T13:31:43.327Z,44.42
2018-08-09T13:34:12.438Z,44.38
2018-08-09T14:04:52.094Z,41.22
2018-08-09T14:07:21.048Z,40.10
2018-08-09T14:25:36.446Z,35.91
2018-08-09T14:28:05.651Z,35.54
2018-08-09T14:30:34.377Z,35.01
2018-08-09T14:33:03.602Z,35.05
2018-08-09T14:35:32.332Z,34.65
2018-08-09T14:38:01.029Z,34.53
2018-08-09T14:40:30.042Z,34.51
2018-08-09T14:42:59.203Z,34.12
2018-08-09T14:45:28.437Z,33.59
2018-08-09T14:47:57.305Z,33.30
2018-08-09T14:50:26.073Z,33.13
2018-08-09T14:52:54.850Z,32.91
2018-08-09T14:55:23.625Z,32.88
2018-08-09T14:57:52.729Z,32.79
2018-08-09T15:00:21.882Z,32.74
2018-08-09T15:02:50.685Z,32.69
2018-08-09T15:05:19.486Z,32.59
2018-08-09T15:07:48.590Z,32.19
2018-08-09T15:10:18.466Z,32.25
2018-08-09T15:12:47.566Z,31.96
2018-08-09T15:15:16.431Z,32.16
2018-08-09T15:17:45.546Z,32.09
2018-08-09T15:20:14.867Z,31.79
2018-08-09T15:22:44.091Z,31.99
2018-08-09T15:25:13.378Z,31.92
2018-08-09T15:27:42.294Z,31.85
2018-08-09T15:30:16.573Z,31.69
2018-08-09T15:32:45.937Z,31.93
2018-08-09T15:35:15.000Z,31.82
2018-08-09T15:37:44.017Z,31.79
2018-08-09T15:40:14.280Z,31.65
2018-08-09T15:42:43.714Z,31.74
2018-08-09T15:45:14.268Z,31.63
2018-08-09T15:47:43.754Z,31.36
2018-08-09T15:50:14.850Z,31.48
2018-08-09T15:52:43.959Z,31.45
2018-08-09T15:55:13.771Z,31.46
2018-08-09T15:57:43.079Z,31.39
2018-08-09T16:00:17.438Z,31.36
2018-08-09T16:02:46.807Z,31.31
2018-08-09T16:05:16.206Z,30.90
2018-08-09T16:07:45.546Z,30.94
2018-08-09T16:10:15.931Z,30.80
2018-08-09T16:12:45.756Z,30.90
2018-08-09T16:15:16.405Z,30.74
2018-08-09T16:17:46.620Z,30.75
2018-08-09T16:20:15.938Z,30.58
2018-08-09T16:22:45.588Z,30.67
2018-08-09T16:25:17.014Z,30.51
2018-08-09T16:27:46.245Z,30.63
2018-08-09T16:30:18.240Z,30.59
2018-08-09T16:32:47.338Z,30.42
2018-08-09T16:35:16.755Z,30.35
2018-08-09T16:37:46.640Z,30.39
2018-08-09T16:40:19.142Z,30.31
2018-08-09T16:42:48.461Z,29.89
2018-08-09T16:45:18.903Z,29.93
2018-08-09T16:47:48.273Z,29.90
2018-08-09T16:50:19.451Z,29.87
2018-08-09T16:52:49.558Z,29.89
2018-08-09T16:55:19.638Z,29.90
2018-08-09T16:57:48.817Z,29.77
2018-08-09T17:00:20.282Z,29.76
2018-08-09T17:02:49.554Z,29.69
2018-08-09T17:05:21.665Z,29.58
2018-08-09T17:07:50.815Z,29.52
2018-08-09T17:10:21.024Z,29.46
2018-08-09T17:12:50.207Z,29.38
2018-08-09T17:15:21.571Z,29.20
2018-08-09T17:17:50.633Z,29.11
2018-08-09T17:20:24.184Z,29.04
2018-08-09T17:22:53.414Z,28.97
2018-08-09T17:25:22.689Z,28.98
2018-08-09T17:27:52.229Z,28.61
2018-08-09T17:30:23.358Z,28.72
2018-08-09T17:32:52.440Z,28.57
2018-08-09T17:35:21.974Z,28.58
2018-08-09T17:37:51.117Z,28.50
2018-08-09T17:40:22.758Z,28.45
2018-08-09T17:42:52.585Z,28.34
2018-08-09T17:45:24.435Z,28.38
2018-08-09T17:47:53.751Z,28.18
2018-08-09T17:50:22.941Z,28.16
2018-08-09T17:52:51.928Z,28.29
2018-08-09T17:55:21.178Z,28.20
2018-08-09T17:57:50.434Z,28.05
2018-08-09T18:00:22.717Z,27.94
2018-08-09T18:02:51.927Z,27.74
2018-08-09T18:05:20.991Z,27.55
2018-08-09T18:07:50.289Z,27.64
2018-08-09T18:10:23.363Z,27.58
2018-08-09T18:12:52.669Z,27.48
2018-08-09T18:15:22.957Z,27.54
2018-08-09T18:17:52.324Z,27.37
2018-08-09T18:20:23.243Z,27.27
2018-08-09T18:22:52.611Z,27.30
2018-08-09T18:25:21.899Z,27.24
2018-08-09T18:27:50.995Z,27.32
2018-08-09T18:30:20.742Z,27.28
2018-08-09T18:32:49.850Z,27.29
2018-08-09T18:35:20.656Z,27.34
2018-08-09T18:37:49.863Z,27.27
2018-08-09T18:40:23.847Z,27.44
2018-08-09T18:42:53.113Z,27.24
2018-08-09T18:45:22.825Z,27.28
2018-08-09T18:47:51.957Z,27.38
2018-08-09T18:50:22.722Z,27.53
2018-08-09T18:52:51.979Z,27.42
2018-08-09T18:55:21.430Z,27.27
2018-08-09T18:57:50.715Z,27.19
2018-08-09T19:00:23.889Z,27.07
2018-08-09T19:02:53.387Z,27.20
2018-08-09T19:05:22.625Z,27.24
2018-08-09T19:07:51.893Z,27.13
2018-08-09T19:10:24.355Z,27.09
2018-08-09T19:12:53.458Z,26.98
2018-08-09T19:15:22.569Z,26.84
2018-08-09T19:17:52.107Z,26.72
2018-08-09T19:20:23.943Z,26.68
2018-08-09T19:22:53.325Z,26.60
2018-08-09T19:25:22.658Z,26.47
2018-08-09T19:27:51.908Z,26.39
2018-08-09T19:30:25.416Z,26.43
2018-08-09T19:32:54.775Z,26.42
2018-08-09T19:35:24.461Z,26.36
2018-08-09T19:37:53.703Z,26.25
2018-08-09T19:40:28.543Z,26.20
2018-08-09T19:42:57.856Z,26.14
2018-08-09T19:45:27.194Z,26.11
2018-08-09T19:47:56.137Z,26.01
2018-08-09T19:50:25.593Z,26.02
2018-08-09T19:52:54.701Z,25.95
2018-08-09T19:55:25.727Z,26.13
2018-08-09T19:57:55.035Z,26.06
2018-08-09T20:00:28.067Z,26.10
2018-08-09T20:02:57.255Z,25.99
2018-08-09T20:05:26.663Z,25.98
2018-08-09T20:07:56.097Z,26.03
2018-08-09T20:10:25.344Z,25.92
2018-08-09T20:12:54.702Z,25.76
2018-08-09T20:15:24.434Z,25.69
2018-08-09T20:17:53.482Z,25.60
2018-08-09T20:20:24.136Z,25.43
2018-08-09T20:22:53.454Z,25.28
2018-08-09T20:25:22.268Z,25.14
2018-08-09T20:27:51.461Z,24.97
2018-08-09T20:30:20.826Z,24.92
2018-08-09T20:32:50.171Z,24.89
2018-08-09T20:35:20.672Z,24.86
2018-08-09T20:37:50.374Z,24.83
2018-08-09T20:40:20.101Z,24.74
2018-08-09T20:42:50.234Z,24.68
2018-08-09T20:45:20.403Z,24.69
2018-08-09T20:47:49.498Z,24.68
2018-08-09T20:50:26.296Z,24.75
2018-08-09T20:52:55.498Z,24.78
2018-08-09T20:55:24.574Z,24.77
2018-08-09T20:57:55.001Z,24.75
2018-08-09T21:00:26.725Z,24.81
2018-08-09T21:02:57.261Z,24.80
2018-08-09T21:05:30.719Z,24.85
2018-08-09T21:07:59.875Z,24.82
2018-08-09T21:10:29.247Z,24.75
2018-08-09T21:12:58.519Z,24.78
2018-08-09T21:15:27.503Z,24.73
2018-08-09T21:17:56.662Z,24.80
2018-08-09T21:20:25.790Z,24.94
2018-08-09T21:22:55.083Z,24.87
2018-08-09T21:25:24.229Z,24.74
2018-08-09T21:27:53.156Z,24.70
2018-08-09T21:30:23.466Z,24.65
2018-08-09T21:32:52.803Z,24.52
2018-08-09T21:35:21.520Z,24.47
2018-08-09T21:37:50.806Z,24.31
2018-08-09T21:40:20.035Z,24.38
2018-08-09T21:42:48.831Z,24.47
2018-08-09T21:45:18.812Z,24.41
2018-08-09T21:47:48.006Z,24.43
2018-08-09T21:50:21.032Z,24.37
2018-08-09T21:52:50.246Z,24.29
2018-08-09T21:55:19.218Z,24.20
2018-08-09T21:57:48.697Z,24.25
2018-08-09T22:00:37.571Z,24.21
2018-08-09T22:03:06.908Z,24.20
2018-08-09T22:05:41.184Z,24.18
2018-08-09T22:08:15.466Z,24.13
2018-08-09T22:10:49.396Z,24.07
2018-08-09T22:13:23.695Z,24.00
2018-08-09T22:15:57.928Z,23.95
2018-08-09T22:18:32.172Z,23.77
2018-08-09T22:21:06.325Z,23.73
2018-08-09T22:23:35.174Z,23.73
2018-08-09T22:26:04.437Z,23.64
2018-08-09T22:28:34.095Z,23.63
2018-08-09T22:31:03.346Z,23.72
2018-08-09T22:33:32.600Z,23.69
2018-08-09T22:36:01.860Z,23.76
2018-08-09T22:38:31.661Z,23.59
2018-08-09T22:41:01.867Z,23.68
2018-08-09T22:43:30.832Z,23.64
2018-08-09T22:45:59.880Z,23.64
2018-08-09T22:48:29.154Z,23.68
2018-08-09T22:50:58.158Z,23.51
2018-08-09T22:53:27.337Z,23.54
2018-08-09T22:55:56.579Z,23.55
2018-08-09T22:58:25.843Z,23.48
2018-08-09T23:37:51.587Z,22.89
2018-08-09T23:40:20.590Z,22.90
2018-08-09T23:42:49.762Z,22.88
2018-08-09T23:45:19.061Z,22.86
2018-08-09T23:47:48.035Z,22.82
2018-08-09T23:50:17.346Z,22.85
2018-08-09T23:52:46.534Z,22.83
2018-08-09T23:55:17.662Z,22.80
2018-08-09T23:57:47.030Z,22.75
